sensor_id;sensor_type;location;lat;lon;timestamp;P1;durP1;ratioP1;P2;durP2;ratioP2
27921;SDS011;15261;50.356;10.340;2023-05-07T08:36:24;7.03;;;6.35;;
27921;SDS011;15261;50.356;10.340;2023-05-07T08:38:53;11.02;;;9.25;;
27921;SDS011;15261;50.356;10.340;2023-05-07T08:41:19;10.60;;;9.50;;
27921;SDS011;15261;50.356;10.340;2023-05-07T08:43:48;9.98;;;8.98;;
27921;SDS011;15261;50.356;10.340;2023-05-07T08:46:23;8.13;;;6.72;;
27921;SDS011;15261;50.356;10.340;2023-05-07T08:48:57;6.10;;;5.60;;
27921;SDS011;15261;50.356;10.340;2023-05-07T08:51:23;6.22;;;5.65;;
27921;SDS011;15261;50.356;10.340;2023-05-07T08:57:05;6.55;;;5.78;;
27921;SDS011;15261;50.356;10.340;2023-05-07T08:59:30;6.07;;;5.38;;
27921;SDS011;15261;50.356;10.340;2023-05-07T09:01:58;6.03;;;5.43;;
27921;SDS011;15261;50.356;10.340;2023-05-07T09:04:24;9.40;;;5.30;;
27921;SDS011;15261;50.356;10.340;2023-05-07T09:06:49;8.13;;;6.03;;
27921;SDS011;15261;50.356;10.340;2023-05-07T09:09:17;5.88;;;5.35;;
27921;SDS011;15261;50.356;10.340;2023-05-07T09:11:46;6.57;;;5.90;;
27921;SDS011;15261;50.356;10.340;2023-05-07T09:14:11;5.78;;;5.25;;
27921;SDS011;15261;50.356;10.340;2023-05-07T09:16:37;6.60;;;5.65;;
27921;SDS011;15261;50.356;10.340;2023-05-07T09:19:04;5.90;;;5.40;;
27921;SDS011;15261;50.356;10.340;2023-05-07T09:21:30;5.18;;;4.68;;
27921;SDS011;15261;50.356;10.340;2023-05-07T09:23:56;5.65;;;5.15;;
27921;SDS011;15261;50.356;10.340;2023-05-07T09:26:22;5.13;;;4.63;;
27921;SDS011;15261;50.356;10.340;2023-05-07T09:28:50;6.53;;;4.95;;
27921;SDS011;15261;50.356;10.340;2023-05-07T09:31:16;5.07;;;4.60;;
27921;SDS011;15261;50.356;10.340;2023-05-07T09:33:42;4.93;;;4.53;;
27921;SDS011;15261;50.356;10.340;2023-05-07T09:36:08;6.70;;;4.80;;
27921;SDS011;15261;50.356;10.340;2023-05-07T09:38:35;4.88;;;4.47;;
27921;SDS011;15261;50.356;10.340;2023-05-07T09:41:06;7.05;;;4.60;;
27921;SDS011;15261;50.356;10.340;2023-05-07T09:43:38;5.03;;;4.47;;
27921;SDS011;15261;50.356;10.340;2023-05-07T09:46:15;5.80;;;4.63;;
27921;SDS011;15261;50.356;10.340;2023-05-07T09:48:42;4.90;;;4.50;;
27921;SDS011;15261;50.356;10.340;2023-05-07T09:51:11;4.85;;;4.45;;
27921;SDS011;15261;50.356;10.340;2023-05-07T09:56:21;5.32;;;4.82;;
27921;SDS011;15261;50.356;10.340;2023-05-07T09:59:01;5.15;;;4.30;;
27921;SDS011;15261;50.356;10.340;2023-05-07T10:01:29;4.60;;;4.20;;
27921;SDS011;15261;50.356;10.340;2023-05-07T10:04:01;5.07;;;4.57;;
27921;SDS011;15261;50.356;10.340;2023-05-07T10:06:28;4.60;;;3.80;;
27921;SDS011;15261;50.356;10.340;2023-05-07T10:08:58;9.57;;;4.40;;
27921;SDS011;15261;50.356;10.340;2023-05-07T10:14:29;5.13;;;3.92;;
27921;SDS011;15261;50.356;10.340;2023-05-07T10:16:57;4.50;;;4.10;;
27921;SDS011;15261;50.356;10.340;2023-05-07T10:22:14;4.30;;;3.90;;
27921;SDS011;15261;50.356;10.340;2023-05-07T10:24:45;3.97;;;3.60;;
27921;SDS011;15261;50.356;10.340;2023-05-07T10:27:13;4.10;;;3.70;;
27921;SDS011;15261;50.356;10.340;2023-05-07T10:35:09;3.30;;;3.10;;
27921;SDS011;15261;50.356;10.340;2023-05-07T10:37:47;3.53;;;3.22;;
27921;SDS011;15261;50.356;10.340;2023-05-07T10:40:13;13.02;;;3.70;;
27921;SDS011;15261;50.356;10.340;2023-05-07T10:42:52;6.43;;;4.13;;
27921;SDS011;15261;50.356;10.340;2023-05-07T10:50:43;4.10;;;3.67;;
27921;SDS011;15261;50.356;10.340;2023-05-07T11:02:05;4.85;;;3.05;;
27921;SDS011;15261;50.356;10.340;2023-05-07T11:18:58;3.10;;;2.90;;
27921;SDS011;15261;50.356;10.340;2023-05-07T11:24:06;4.75;;;2.95;;
27921;SDS011;15261;50.356;10.340;2023-05-07T11:26:43;3.28;;;3.08;;
27921;SDS011;15261;50.356;10.340;2023-05-07T11:32:40;4.43;;;3.40;;
27921;SDS011;15261;50.356;10.340;2023-05-07T11:35:06;4.57;;;2.90;;
27921;SDS011;15261;50.356;10.340;2023-05-07T11:37:32;4.22;;;3.00;;
27921;SDS011;15261;50.356;10.340;2023-05-07T11:40:07;3.30;;;3.00;;
27921;SDS011;15261;50.356;10.340;2023-05-07T11:46:07;3.95;;;3.15;;
27921;SDS011;15261;50.356;10.340;2023-05-07T11:48:34;3.38;;;3.05;;
27921;SDS011;15261;50.356;10.340;2023-05-07T11:51:01;3.20;;;2.90;;
27921;SDS011;15261;50.356;10.340;2023-05-07T11:53:38;3.10;;;2.90;;
27921;SDS011;15261;50.356;10.340;2023-05-07T11:56:08;6.45;;;3.10;;
27921;SDS011;15261;50.356;10.340;2023-05-07T11:58:35;2.97;;;2.60;;
27921;SDS011;15261;50.356;10.340;2023-05-07T12:01:01;6.05;;;2.78;;
27921;SDS011;15261;50.356;10.340;2023-05-07T12:03:27;3.90;;;2.70;;
27921;SDS011;15261;50.356;10.340;2023-05-07T12:05:53;4.50;;;2.95;;
27921;SDS011;15261;50.356;10.340;2023-05-07T12:08:19;2.80;;;2.60;;
27921;SDS011;15261;50.356;10.340;2023-05-07T12:10:47;3.35;;;3.10;;
27921;SDS011;15261;50.356;10.340;2023-05-07T12:13:23;7.18;;;2.72;;
27921;SDS011;15261;50.356;10.340;2023-05-07T12:15:53;2.67;;;2.50;;
27921;SDS011;15261;50.356;10.340;2023-05-07T12:18:20;3.40;;;3.05;;
27921;SDS011;15261;50.356;10.340;2023-05-07T12:20:46;3.28;;;2.97;;
27921;SDS011;15261;50.356;10.340;2023-05-07T12:23:12;4.75;;;2.90;;
27921;SDS011;15261;50.356;10.340;2023-05-07T12:25:39;3.45;;;3.15;;
27921;SDS011;15261;50.356;10.340;2023-05-07T12:28:12;3.38;;;2.97;;
27921;SDS011;15261;50.356;10.340;2023-05-07T12:30:40;3.42;;;3.20;;
27921;SDS011;15261;50.356;10.340;2023-05-07T12:33:06;3.40;;;3.10;;
27921;SDS011;15261;50.356;10.340;2023-05-07T12:35:38;4.60;;;2.70;;
27921;SDS011;15261;50.356;10.340;2023-05-07T12:38:12;3.53;;;3.00;;
27921;SDS011;15261;50.356;10.340;2023-05-07T12:40:43;3.25;;;2.85;;
27921;SDS011;15261;50.356;10.340;2023-05-07T12:43:17;2.97;;;2.67;;
27921;SDS011;15261;50.356;10.340;2023-05-07T12:45:49;2.88;;;2.67;;
27921;SDS011;15261;50.356;10.340;2023-05-07T12:48:15;2.90;;;2.70;;
27921;SDS011;15261;50.356;10.340;2023-05-07T12:50:41;4.20;;;2.78;;
27921;SDS011;15261;50.356;10.340;2023-05-07T12:53:07;2.88;;;2.60;;
27921;SDS011;15261;50.356;10.340;2023-05-07T12:55:45;3.50;;;2.90;;
27921;SDS011;15261;50.356;10.340;2023-05-07T13:00:49;4.38;;;2.58;;
27921;SDS011;15261;50.356;10.340;2023-05-07T13:03:21;3.20;;;2.90;;
27921;SDS011;15261;50.356;10.340;2023-05-07T13:05:49;3.03;;;2.72;;
27921;SDS011;15261;50.356;10.340;2023-05-07T13:08:25;3.33;;;3.03;;
27921;SDS011;15261;50.356;10.340;2023-05-07T13:11:00;2.63;;;2.40;;
27921;SDS011;15261;50.356;10.340;2023-05-07T13:13:31;2.50;;;2.30;;
27921;SDS011;15261;50.356;10.340;2023-05-07T13:15:58;3.10;;;2.50;;
27921;SDS011;15261;50.356;10.340;2023-05-07T13:18:25;3.42;;;2.58;;
27921;SDS011;15261;50.356;10.340;2023-05-07T13:20:51;4.47;;;2.55;;
27921;SDS011;15261;50.356;10.340;2023-05-07T13:23:17;2.88;;;2.60;;
27921;SDS011;15261;50.356;10.340;2023-05-07T13:25:43;3.65;;;3.05;;
27921;SDS011;15261;50.356;10.340;2023-05-07T13:28:09;2.97;;;2.67;;
27921;SDS011;15261;50.356;10.340;2023-05-07T13:30:35;2.75;;;2.55;;
27921;SDS011;15261;50.356;10.340;2023-05-07T13:33:00;2.53;;;2.33;;
27921;SDS011;15261;50.356;10.340;2023-05-07T13:35:26;3.08;;;2.78;;
27921;SDS011;15261;50.356;10.340;2023-05-07T13:37:51;3.80;;;2.75;;
27921;SDS011;15261;50.356;10.340;2023-05-07T13:40:18;2.85;;;2.65;;
27921;SDS011;15261;50.356;10.340;2023-05-07T13:42:44;2.70;;;2.50;;
27921;SDS011;15261;50.356;10.340;2023-05-07T13:45:10;4.78;;;2.70;;
27921;SDS011;15261;50.356;10.340;2023-05-07T13:47:38;2.83;;;2.60;;
27921;SDS011;15261;50.356;10.340;2023-05-07T13:50:10;2.63;;;2.42;;
27921;SDS011;15261;50.356;10.340;2023-05-07T13:52:38;4.30;;;2.50;;
27921;SDS011;15261;50.356;10.340;2023-05-07T13:55:05;3.83;;;2.58;;
27921;SDS011;15261;50.356;10.340;2023-05-07T13:57:32;2.42;;;2.28;;
27921;SDS011;15261;50.356;10.340;2023-05-07T13:59:57;3.63;;;2.25;;
27921;SDS011;15261;50.356;10.340;2023-05-07T14:02:23;3.35;;;2.60;;
27921;SDS011;15261;50.356;10.340;2023-05-07T14:04:48;3.13;;;2.47;;
27921;SDS011;15261;50.356;10.340;2023-05-07T14:07:14;2.40;;;2.20;;
27921;SDS011;15261;50.356;10.340;2023-05-07T14:09:40;3.97;;;2.47;;
27921;SDS011;15261;50.356;10.340;2023-05-07T14:12:05;2.35;;;2.15;;
27921;SDS011;15261;50.356;10.340;2023-05-07T14:14:31;4.65;;;2.30;;
27921;SDS011;15261;50.356;10.340;2023-05-07T14:16:56;3.95;;;2.67;;
27921;SDS011;15261;50.356;10.340;2023-05-07T14:19:22;2.60;;;2.40;;
27921;SDS011;15261;50.356;10.340;2023-05-07T14:21:48;2.80;;;2.40;;
27921;SDS011;15261;50.356;10.340;2023-05-07T14:24:14;2.45;;;2.17;;
27921;SDS011;15261;50.356;10.340;2023-05-07T14:26:39;2.67;;;2.55;;
27921;SDS011;15261;50.356;10.340;2023-05-07T14:29:05;2.83;;;2.47;;
27921;SDS011;15261;50.356;10.340;2023-05-07T14:31:31;4.20;;;2.58;;
27921;SDS011;15261;50.356;10.340;2023-05-07T14:33:57;2.50;;;2.30;;
27921;SDS011;15261;50.356;10.340;2023-05-07T14:36:23;2.60;;;2.03;;
27921;SDS011;15261;50.356;10.340;2023-05-07T14:38:51;2.55;;;2.35;;
27921;SDS011;15261;50.356;10.340;2023-05-07T14:41:19;2.67;;;2.45;;
27921;SDS011;15261;50.356;10.340;2023-05-07T14:43:45;3.30;;;3.00;;
27921;SDS011;15261;50.356;10.340;2023-05-07T14:46:15;2.72;;;1.98;;
27921;SDS011;15261;50.356;10.340;2023-05-07T14:48:42;4.30;;;2.65;;
27921;SDS011;15261;50.356;10.340;2023-05-07T14:51:09;4.15;;;2.72;;
27921;SDS011;15261;50.356;10.340;2023-05-07T14:53:35;4.10;;;2.50;;
27921;SDS011;15261;50.356;10.340;2023-05-07T14:56:00;2.75;;;2.38;;
27921;SDS011;15261;50.356;10.340;2023-05-07T14:58:26;3.35;;;2.50;;
27921;SDS011;15261;50.356;10.340;2023-05-07T15:00:55;2.22;;;2.03;;
27921;SDS011;15261;50.356;10.340;2023-05-07T15:03:20;2.28;;;1.98;;
27921;SDS011;15261;50.356;10.340;2023-05-07T15:05:46;4.50;;;2.17;;
27921;SDS011;15261;50.356;10.340;2023-05-07T15:08:12;2.42;;;2.22;;
27921;SDS011;15261;50.356;10.340;2023-05-07T15:10:37;4.28;;;2.00;;
27921;SDS011;15261;50.356;10.340;2023-05-07T15:13:06;5.20;;;2.40;;
27921;SDS011;15261;50.356;10.340;2023-05-07T15:15:32;4.07;;;2.15;;
27921;SDS011;15261;50.356;10.340;2023-05-07T15:17:58;2.42;;;2.22;;
27921;SDS011;15261;50.356;10.340;2023-05-07T15:20:27;2.38;;;2.17;;
27921;SDS011;15261;50.356;10.340;2023-05-07T15:22:52;3.67;;;2.33;;
27921;SDS011;15261;50.356;10.340;2023-05-07T15:25:18;4.45;;;4.05;;
27921;SDS011;15261;50.356;10.340;2023-05-07T15:27:44;4.60;;;4.20;;
27921;SDS011;15261;50.356;10.340;2023-05-07T15:30:10;5.18;;;4.70;;
27921;SDS011;15261;50.356;10.340;2023-05-07T15:32:37;5.72;;;4.78;;
27921;SDS011;15261;50.356;10.340;2023-05-07T15:35:03;6.15;;;4.97;;
27921;SDS011;15261;50.356;10.340;2023-05-07T15:37:33;4.90;;;4.50;;
27921;SDS011;15261;50.356;10.340;2023-05-07T15:39:59;4.90;;;4.50;;
27921;SDS011;15261;50.356;10.340;2023-05-07T15:42:27;5.75;;;4.85;;
27921;SDS011;15261;50.356;10.340;2023-05-07T15:44:52;10.98;;;5.35;;
27921;SDS011;15261;50.356;10.340;2023-05-07T15:47:18;5.30;;;4.90;;
27921;SDS011;15261;50.356;10.340;2023-05-07T15:49:47;5.40;;;5.00;;
27921;SDS011;15261;50.356;10.340;2023-05-07T15:52:12;5.85;;;5.35;;
27921;SDS011;15261;50.356;10.340;2023-05-07T15:54:41;6.18;;;5.63;;
27921;SDS011;15261;50.356;10.340;2023-05-07T16:00:08;5.95;;;5.45;;
27921;SDS011;15261;50.356;10.340;2023-05-07T16:02:36;6.05;;;5.40;;
27921;SDS011;15261;50.356;10.340;2023-05-07T16:05:02;7.63;;;5.50;;
27921;SDS011;15261;50.356;10.340;2023-05-07T16:07:27;5.15;;;4.72;;
27921;SDS011;15261;50.356;10.340;2023-05-07T16:09:53;6.20;;;5.60;;
27921;SDS011;15261;50.356;10.340;2023-05-07T16:12:18;5.80;;;5.30;;
27921;SDS011;15261;50.356;10.340;2023-05-07T16:14:44;5.75;;;5.25;;
27921;SDS011;15261;50.356;10.340;2023-05-07T16:17:10;8.10;;;7.40;;
27921;SDS011;15261;50.356;10.340;2023-05-07T16:19:35;6.63;;;5.60;;
27921;SDS011;15261;50.356;10.340;2023-05-07T16:22:01;5.97;;;5.50;;
27921;SDS011;15261;50.356;10.340;2023-05-07T16:24:27;5.70;;;5.20;;
27921;SDS011;15261;50.356;10.340;2023-05-07T16:26:52;7.78;;;6.13;;
27921;SDS011;15261;50.356;10.340;2023-05-07T16:29:18;6.25;;;5.25;;
27921;SDS011;15261;50.356;10.340;2023-05-07T16:31:44;6.32;;;5.72;;
27921;SDS011;15261;50.356;10.340;2023-05-07T16:34:10;5.90;;;5.40;;
27921;SDS011;15261;50.356;10.340;2023-05-07T16:36:35;5.60;;;5.20;;
27921;SDS011;15261;50.356;10.340;2023-05-07T16:39:01;5.85;;;5.35;;
27921;SDS011;15261;50.356;10.340;2023-05-07T16:41:27;5.13;;;4.72;;
27921;SDS011;15261;50.356;10.340;2023-05-07T16:43:53;6.05;;;5.45;;
27921;SDS011;15261;50.356;10.340;2023-05-07T16:46:18;5.47;;;5.07;;
27921;SDS011;15261;50.356;10.340;2023-05-07T16:48:44;6.03;;;4.95;;
27921;SDS011;15261;50.356;10.340;2023-05-07T16:51:10;5.40;;;4.90;;
27921;SDS011;15261;50.356;10.340;2023-05-07T16:53:38;4.75;;;4.30;;
27921;SDS011;15261;50.356;10.340;2023-05-07T16:56:07;5.28;;;4.88;;
27921;SDS011;15261;50.356;10.340;2023-05-07T16:58:33;5.00;;;4.60;;
27921;SDS011;15261;50.356;10.340;2023-05-07T17:00:59;4.80;;;4.40;;
27921;SDS011;15261;50.356;10.340;2023-05-07T17:03:29;4.90;;;4.43;;
27921;SDS011;15261;50.356;10.340;2023-05-07T17:05:56;5.82;;;4.80;;
27921;SDS011;15261;50.356;10.340;2023-05-07T17:08:21;4.88;;;4.47;;
27921;SDS011;15261;50.356;10.340;2023-05-07T17:10:47;4.82;;;4.45;;
27921;SDS011;15261;50.356;10.340;2023-05-07T17:13:13;4.60;;;4.25;;
27921;SDS011;15261;50.356;10.340;2023-05-07T17:15:38;4.72;;;4.32;;
27921;SDS011;15261;50.356;10.340;2023-05-07T17:18:05;4.70;;;4.30;;
27921;SDS011;15261;50.356;10.340;2023-05-07T17:20:31;4.90;;;4.38;;
27921;SDS011;15261;50.356;10.340;2023-05-07T17:22:57;4.90;;;4.43;;
27921;SDS011;15261;50.356;10.340;2023-05-07T17:25:22;4.35;;;4.05;;
27921;SDS011;15261;50.356;10.340;2023-05-07T17:27:48;8.95;;;4.70;;
27921;SDS011;15261;50.356;10.340;2023-05-07T17:30:14;4.00;;;3.70;;
27921;SDS011;15261;50.356;10.340;2023-05-07T17:32:40;4.50;;;4.10;;
27921;SDS011;15261;50.356;10.340;2023-05-07T17:35:06;4.82;;;4.38;;
27921;SDS011;15261;50.356;10.340;2023-05-07T17:37:32;5.00;;;4.50;;
27921;SDS011;15261;50.356;10.340;2023-05-07T17:39:58;5.30;;;4.80;;
27921;SDS011;15261;50.356;10.340;2023-05-07T17:42:24;4.30;;;4.00;;
27921;SDS011;15261;50.356;10.340;2023-05-07T17:44:49;4.78;;;4.38;;
27921;SDS011;15261;50.356;10.340;2023-05-07T17:47:15;6.80;;;4.00;;
27921;SDS011;15261;50.356;10.340;2023-05-07T17:49:42;4.72;;;4.32;;
27921;SDS011;15261;50.356;10.340;2023-05-07T17:52:07;4.20;;;3.90;;
27921;SDS011;15261;50.356;10.340;2023-05-07T17:54:34;5.93;;;4.30;;
27921;SDS011;15261;50.356;10.340;2023-05-07T17:57:00;7.50;;;6.80;;
27921;SDS011;15261;50.356;10.340;2023-05-07T17:59:27;9.30;;;8.40;;
27921;SDS011;15261;50.356;10.340;2023-05-07T18:01:56;5.15;;;4.65;;
27921;SDS011;15261;50.356;10.340;2023-05-07T18:04:22;5.65;;;4.10;;
27921;SDS011;15261;50.356;10.340;2023-05-07T18:06:50;5.35;;;4.40;;
27921;SDS011;15261;50.356;10.340;2023-05-07T18:09:15;4.78;;;4.30;;
27921;SDS011;15261;50.356;10.340;2023-05-07T18:11:41;4.82;;;4.43;;
27921;SDS011;15261;50.356;10.340;2023-05-07T18:14:07;4.90;;;4.45;;
27921;SDS011;15261;50.356;10.340;2023-05-07T18:16:32;4.75;;;4.35;;
27921;SDS011;15261;50.356;10.340;2023-05-07T18:18:58;5.63;;;4.25;;
27921;SDS011;15261;50.356;10.340;2023-05-07T18:21:24;4.25;;;3.95;;
27921;SDS011;15261;50.356;10.340;2023-05-07T18:23:49;4.00;;;3.70;;
27921;SDS011;15261;50.356;10.340;2023-05-07T18:26:16;4.30;;;4.00;;
27921;SDS011;15261;50.356;10.340;2023-05-07T18:28:42;4.40;;;4.10;;
27921;SDS011;15261;50.356;10.340;2023-05-07T18:31:07;4.32;;;3.80;;
27921;SDS011;15261;50.356;10.340;2023-05-07T18:33:34;4.43;;;4.03;;
27921;SDS011;15261;50.356;10.340;2023-05-07T18:35:59;4.07;;;3.78;;
27921;SDS011;15261;50.356;10.340;2023-05-07T18:38:25;4.15;;;3.85;;
27921;SDS011;15261;50.356;10.340;2023-05-07T18:40:50;5.32;;;3.83;;
27921;SDS011;15261;50.356;10.340;2023-05-07T18:43:19;4.22;;;3.83;;
27921;SDS011;15261;50.356;10.340;2023-05-07T18:45:47;4.30;;;4.00;;
27921;SDS011;15261;50.356;10.340;2023-05-07T18:48:13;3.88;;;3.58;;
27921;SDS011;15261;50.356;10.340;2023-05-07T18:50:44;5.07;;;4.20;;
27921;SDS011;15261;50.356;10.340;2023-05-07T18:53:09;4.53;;;3.70;;
27921;SDS011;15261;50.356;10.340;2023-05-07T18:55:35;4.50;;;4.10;;
27921;SDS011;15261;50.356;10.340;2023-05-07T18:58:01;4.10;;;3.80;;
27921;SDS011;15261;50.356;10.340;2023-05-07T19:00:26;4.45;;;4.15;;
27921;SDS011;15261;50.356;10.340;2023-05-07T19:02:53;4.10;;;3.80;;
27921;SDS011;15261;50.356;10.340;2023-05-07T19:05:18;7.60;;;4.03;;
27921;SDS011;15261;50.356;10.340;2023-05-07T19:07:44;4.78;;;4.10;;
27921;SDS011;15261;50.356;10.340;2023-05-07T19:10:11;4.20;;;3.90;;
27921;SDS011;15261;50.356;10.340;2023-05-07T19:12:37;4.00;;;3.70;;
27921;SDS011;15261;50.356;10.340;2023-05-07T19:15:02;4.00;;;3.70;;
27921;SDS011;15261;50.356;10.340;2023-05-07T19:17:28;4.40;;;4.00;;
27921;SDS011;15261;50.356;10.340;2023-05-07T19:19:57;3.83;;;3.53;;
27921;SDS011;15261;50.356;10.340;2023-05-07T19:22:22;3.92;;;3.63;;
27921;SDS011;15261;50.356;10.340;2023-05-07T19:24:48;4.25;;;3.80;;
27921;SDS011;15261;50.356;10.340;2023-05-07T19:27:14;3.70;;;3.40;;
27921;SDS011;15261;50.356;10.340;2023-05-07T19:29:41;3.90;;;3.60;;
27921;SDS011;15261;50.356;10.340;2023-05-07T19:32:07;3.63;;;3.40;;
27921;SDS011;15261;50.356;10.340;2023-05-07T19:34:33;4.28;;;3.53;;
27921;SDS011;15261;50.356;10.340;2023-05-07T19:39:36;3.92;;;3.63;;
27921;SDS011;15261;50.356;10.340;2023-05-07T19:42:02;6.18;;;3.50;;
27921;SDS011;15261;50.356;10.340;2023-05-07T19:47:51;3.90;;;3.40;;
27921;SDS011;15261;50.356;10.340;2023-05-07T19:50:19;4.20;;;3.50;;
27921;SDS011;15261;50.356;10.340;2023-05-07T19:52:47;3.83;;;3.47;;
27921;SDS011;15261;50.356;10.340;2023-05-07T19:55:13;3.80;;;3.50;;
27921;SDS011;15261;50.356;10.340;2023-05-07T19:57:38;3.75;;;3.45;;
27921;SDS011;15261;50.356;10.340;2023-05-07T20:00:05;6.05;;;3.58;;
27921;SDS011;15261;50.356;10.340;2023-05-07T20:02:31;6.75;;;3.53;;
27921;SDS011;15261;50.356;10.340;2023-05-07T20:04:57;5.18;;;3.40;;
27921;SDS011;15261;50.356;10.340;2023-05-07T20:07:22;4.18;;;3.88;;
27921;SDS011;15261;50.356;10.340;2023-05-07T20:09:48;3.67;;;3.38;;
27921;SDS011;15261;50.356;10.340;2023-05-07T20:12:13;4.47;;;3.40;;
27921;SDS011;15261;50.356;10.340;2023-05-07T20:14:39;3.50;;;3.22;;
27921;SDS011;15261;50.356;10.340;2023-05-07T20:17:05;3.40;;;3.20;;
27921;SDS011;15261;50.356;10.340;2023-05-07T20:19:30;3.33;;;3.10;;
27921;SDS011;15261;50.356;10.340;2023-05-07T20:21:56;3.22;;;2.92;;
27921;SDS011;15261;50.356;10.340;2023-05-07T20:24:22;4.20;;;3.60;;
27921;SDS011;15261;50.356;10.340;2023-05-07T20:26:47;4.55;;;3.30;;
27921;SDS011;15261;50.356;10.340;2023-05-07T20:32:04;3.70;;;3.40;;
27921;SDS011;15261;50.356;10.340;2023-05-07T20:34:30;4.30;;;3.33;;
27921;SDS011;15261;50.356;10.340;2023-05-07T20:39:29;4.00;;;3.72;;
27921;SDS011;15261;50.356;10.340;2023-05-07T20:41:55;3.60;;;3.30;;
27921;SDS011;15261;50.356;10.340;2023-05-07T20:44:23;3.88;;;3.60;;
27921;SDS011;15261;50.356;10.340;2023-05-07T20:46:49;3.90;;;3.60;;
27921;SDS011;15261;50.356;10.340;2023-05-07T20:49:14;4.00;;;3.60;;
27921;SDS011;15261;50.356;10.340;2023-05-07T20:51:40;3.55;;;3.35;;
27921;SDS011;15261;50.356;10.340;2023-05-07T20:54:06;4.05;;;3.72;;
27921;SDS011;15261;50.356;10.340;2023-05-07T20:56:32;4.05;;;3.70;;
27921;SDS011;15261;50.356;10.340;2023-05-07T20:58:58;3.95;;;3.65;;
27921;SDS011;15261;50.356;10.340;2023-05-07T21:01:23;4.10;;;3.70;;
27921;SDS011;15261;50.356;10.340;2023-05-07T21:03:49;4.50;;;4.20;;
27921;SDS011;15261;50.356;10.340;2023-05-07T21:06:17;4.50;;;4.20;;
27921;SDS011;15261;50.356;10.340;2023-05-07T21:08:43;5.00;;;4.10;;
27921;SDS011;15261;50.356;10.340;2023-05-07T21:11:09;4.05;;;3.75;;
27921;SDS011;15261;50.356;10.340;2023-05-07T21:13:34;4.30;;;4.00;;
27921;SDS011;15261;50.356;10.340;2023-05-07T21:16:00;4.88;;;4.38;;
27921;SDS011;15261;50.356;10.340;2023-05-07T21:18:25;5.00;;;4.35;;
27921;SDS011;15261;50.356;10.340;2023-05-07T21:20:52;4.88;;;4.45;;
27921;SDS011;15261;50.356;10.340;2023-05-07T21:23:18;5.03;;;4.40;;
27921;SDS011;15261;50.356;10.340;2023-05-07T21:25:43;4.82;;;4.43;;
27921;SDS011;15261;50.356;10.340;2023-05-07T21:28:11;4.70;;;4.40;;
27921;SDS011;15261;50.356;10.340;2023-05-07T21:30:36;4.68;;;4.38;;
27921;SDS011;15261;50.356;10.340;2023-05-07T21:33:02;5.15;;;4.68;;
27921;SDS011;15261;50.356;10.340;2023-05-07T21:35:28;5.10;;;4.63;;
27921;SDS011;15261;50.356;10.340;2023-05-07T21:37:54;5.60;;;4.88;;
27921;SDS011;15261;50.356;10.340;2023-05-07T21:43:01;5.13;;;4.72;;
27921;SDS011;15261;50.356;10.340;2023-05-07T21:45:27;4.90;;;4.60;;
27921;SDS011;15261;50.356;10.340;2023-05-07T21:47:52;5.40;;;5.00;;
27921;SDS011;15261;50.356;10.340;2023-05-07T21:50:18;5.25;;;4.75;;
27921;SDS011;15261;50.356;10.340;2023-05-07T21:52:44;6.25;;;5.03;;
27921;SDS011;15261;50.356;10.340;2023-05-07T21:55:10;4.65;;;4.35;;
27921;SDS011;15261;50.356;10.340;2023-05-07T21:57:36;5.28;;;4.78;;
27921;SDS011;15261;50.356;10.340;2023-05-07T22:00:04;6.03;;;5.35;;
27921;SDS011;15261;50.356;10.340;2023-05-07T22:02:31;5.80;;;5.30;;
27921;SDS011;15261;50.356;10.340;2023-05-07T22:04:57;5.57;;;5.18;;
27921;SDS011;15261;50.356;10.340;2023-05-07T22:07:23;5.75;;;5.25;;
27921;SDS011;15261;50.356;10.340;2023-05-07T22:09:48;5.60;;;5.10;;
27921;SDS011;15261;50.356;10.340;2023-05-07T22:12:14;6.15;;;5.65;;
27921;SDS011;15261;50.356;10.340;2023-05-07T22:14:40;5.65;;;5.05;;
27921;SDS011;15261;50.356;10.340;2023-05-07T22:17:05;6.00;;;5.60;;
27921;SDS011;15261;50.356;10.340;2023-05-07T22:19:31;6.32;;;5.82;;
27921;SDS011;15261;50.356;10.340;2023-05-07T22:21:56;6.45;;;5.88;;
27921;SDS011;15261;50.356;10.340;2023-05-07T22:24:22;6.10;;;5.68;;
27921;SDS011;15261;50.356;10.340;2023-05-07T22:26:47;6.47;;;5.90;;
27921;SDS011;15261;50.356;10.340;2023-05-07T22:29:13;6.40;;;5.90;;
27921;SDS011;15261;50.356;10.340;2023-05-07T22:31:38;6.30;;;5.80;;
27921;SDS011;15261;50.356;10.340;2023-05-07T22:34:04;6.70;;;6.20;;
27921;SDS011;15261;50.356;10.340;2023-05-07T22:36:30;6.63;;;6.13;;
27921;SDS011;15261;50.356;10.340;2023-05-07T22:38:55;6.45;;;5.95;;
27921;SDS011;15261;50.356;10.340;2023-05-07T22:41:21;6.88;;;6.32;;
27921;SDS011;15261;50.356;10.340;2023-05-07T22:43:47;6.45;;;5.95;;
27921;SDS011;15261;50.356;10.340;2023-05-07T22:46:13;6.35;;;5.85;;
27921;SDS011;15261;50.356;10.340;2023-05-07T22:48:39;6.88;;;6.38;;
27921;SDS011;15261;50.356;10.340;2023-05-07T22:51:04;7.10;;;6.50;;
27921;SDS011;15261;50.356;10.340;2023-05-07T22:53:30;7.00;;;6.50;;
27921;SDS011;15261;50.356;10.340;2023-05-07T22:55:55;6.55;;;5.95;;
27921;SDS011;15261;50.356;10.340;2023-05-07T22:58:21;6.65;;;6.15;;
27921;SDS011;15261;50.356;10.340;2023-05-07T23:00:47;6.88;;;6.20;;
27921;SDS011;15261;50.356;10.340;2023-05-07T23:03:13;7.30;;;6.65;;
27921;SDS011;15261;50.356;10.340;2023-05-07T23:05:38;7.45;;;6.85;;
27921;SDS011;15261;50.356;10.340;2023-05-07T23:08:04;7.22;;;6.70;;
27921;SDS011;15261;50.356;10.340;2023-05-07T23:10:30;7.43;;;6.80;;
27921;SDS011;15261;50.356;10.340;2023-05-07T23:12:58;8.05;;;7.35;;
27921;SDS011;15261;50.356;10.340;2023-05-07T23:15:24;7.60;;;7.00;;
27921;SDS011;15261;50.356;10.340;2023-05-07T23:17:49;7.60;;;6.70;;
27921;SDS011;15261;50.356;10.340;2023-05-07T23:20:15;7.65;;;7.00;;
27921;SDS011;15261;50.356;10.340;2023-05-07T23:22:41;8.50;;;7.80;;
27921;SDS011;15261;50.356;10.340;2023-05-07T23:25:06;7.60;;;6.82;;
27921;SDS011;15261;50.356;10.340;2023-05-07T23:27:33;8.43;;;7.72;;
27921;SDS011;15261;50.356;10.340;2023-05-07T23:29:59;8.32;;;7.60;;
27921;SDS011;15261;50.356;10.340;2023-05-07T23:32:24;8.90;;;7.85;;
27921;SDS011;15261;50.356;10.340;2023-05-07T23:34:50;8.32;;;7.63;;
27921;SDS011;15261;50.356;10.340;2023-05-07T23:37:19;7.57;;;6.97;;
27921;SDS011;15261;50.356;10.340;2023-05-07T23:39:45;7.80;;;7.20;;
27921;SDS011;15261;50.356;10.340;2023-05-07T23:42:11;7.63;;;6.93;;
27921;SDS011;15261;50.356;10.340;2023-05-07T23:44:37;7.28;;;6.68;;
27921;SDS011;15261;50.356;10.340;2023-05-07T23:47:03;9.52;;;7.35;;
27921;SDS011;15261;50.356;10.340;2023-05-07T23:49:28;7.78;;;7.07;;
27921;SDS011;15261;50.356;10.340;2023-05-07T23:51:54;7.45;;;6.85;;
27921;SDS011;15261;50.356;10.340;2023-05-07T23:54:19;8.27;;;7.57;;
27921;SDS011;15261;50.356;10.340;2023-05-07T23:56:45;8.20;;;7.50;;
27921;SDS011;15261;50.356;10.340;2023-05-07T23:59:11;7.78;;;7.18;;
